sensor_id;sensor_type;location;lat;lon;timestamp;temperature;humidity
4908;DHT22;64375;51.540;7.364;2023-03-01T00:00:20;6.00;71.60
4908;DHT22;64375;51.540;7.364;2023-03-01T00:02:52;5.90;74.10
4908;DHT22;64375;51.540;7.364;2023-03-01T00:05:29;6.20;77.80
4908;DHT22;64375;51.540;7.364;2023-03-01T00:08:04;6.10;72.80
4908;DHT22;64375;51.540;7.364;2023-03-01T00:10:39;5.90;72.40
4908;DHT22;64375;51.540;7.364;2023-03-01T00:13:19;5.70;72.50
4908;DHT22;64375;51.540;7.364;2023-03-01T00:15:54;6.10;76.70
4908;DHT22;64375;51.540;7.364;2023-03-01T00:18:43;6.20;74.10
4908;DHT22;64375;51.540;7.364;2023-03-01T00:21:17;6.20;73.40
4908;DHT22;64375;51.540;7.364;2023-03-01T00:23:52;6.10;72.40
4908;DHT22;64375;51.540;7.364;2023-03-01T00:26:21;6.40;77.20
4908;DHT22;64375;51.540;7.364;2023-03-01T00:28:51;7.00;84.60
4908;DHT22;64375;51.540;7.364;2023-03-01T00:31:21;7.30;80.20
4908;DHT22;64375;51.540;7.364;2023-03-01T00:33:54;7.00;72.90
4908;DHT22;64375;51.540;7.364;2023-03-01T00:36:28;6.90;74.40
4908;DHT22;64375;51.540;7.364;2023-03-01T00:39:02;7.20;79.00
4908;DHT22;64375;51.540;7.364;2023-03-01T00:41:30;7.30;76.10
4908;DHT22;64375;51.540;7.364;2023-03-01T00:44:00;7.10;72.40
4908;DHT22;64375;51.540;7.364;2023-03-01T00:46:34;6.80;71.20
4908;DHT22;64375;51.540;7.364;2023-03-01T00:49:04;7.20;78.70
4908;DHT22;64375;51.540;7.364;2023-03-01T00:51:32;7.20;73.40
4908;DHT22;64375;51.540;7.364;2023-03-01T00:54:02;6.80;70.70
4908;DHT22;64375;51.540;7.364;2023-03-01T00:56:32;6.50;70.50
4908;DHT22;64375;51.540;7.364;2023-03-01T00:59:00;6.40;74.70
4908;DHT22;64375;51.540;7.364;2023-03-01T01:01:37;6.90;81.70
4908;DHT22;64375;51.540;7.364;2023-03-01T01:04:08;6.90;73.90
4908;DHT22;64375;51.540;7.364;2023-03-01T01:06:41;6.50;71.20
4908;DHT22;64375;51.540;7.364;2023-03-01T01:09:20;6.00;70.70
4908;DHT22;64375;51.540;7.364;2023-03-01T01:11:50;5.90;72.60
4908;DHT22;64375;51.540;7.364;2023-03-01T01:14:20;6.00;74.50
4908;DHT22;64375;51.540;7.364;2023-03-01T01:16:57;5.90;73.40
4908;DHT22;64375;51.540;7.364;2023-03-01T01:19:26;5.90;72.70
4908;DHT22;64375;51.540;7.364;2023-03-01T01:21:54;5.80;74.70
4908;DHT22;64375;51.540;7.364;2023-03-01T01:24:30;6.30;79.80
4908;DHT22;64375;51.540;7.364;2023-03-01T01:26:58;6.60;76.70
4908;DHT22;64375;51.540;7.364;2023-03-01T01:29:29;6.40;72.40
4908;DHT22;64375;51.540;7.364;2023-03-01T01:32:00;6.00;71.30
4908;DHT22;64375;51.540;7.364;2023-03-01T01:34:38;6.50;79.60
4908;DHT22;64375;51.540;7.364;2023-03-01T01:37:09;7.00;83.20
4908;DHT22;64375;51.540;7.364;2023-03-01T01:39:37;6.90;74.90
4908;DHT22;64375;51.540;7.364;2023-03-01T01:42:13;6.60;71.40
4908;DHT22;64375;51.540;7.364;2023-03-01T01:44:46;6.70;76.40
4908;DHT22;64375;51.540;7.364;2023-03-01T01:47:16;7.00;79.60
4908;DHT22;64375;51.540;7.364;2023-03-01T01:49:49;6.80;72.60
4908;DHT22;64375;51.540;7.364;2023-03-01T01:52:21;6.60;71.20
4908;DHT22;64375;51.540;7.364;2023-03-01T01:54:53;6.50;73.10
4908;DHT22;64375;51.540;7.364;2023-03-01T01:57:25;6.90;78.50
4908;DHT22;64375;51.540;7.364;2023-03-01T01:59:59;6.50;71.20
4908;DHT22;64375;51.540;7.364;2023-03-01T02:02:31;6.30;72.00
4908;DHT22;64375;51.540;7.364;2023-03-01T02:05:16;6.60;78.10
4908;DHT22;64375;51.540;7.364;2023-03-01T02:07:49;7.00;80.40
4908;DHT22;64375;51.540;7.364;2023-03-01T02:10:17;6.50;71.10
4908;DHT22;64375;51.540;7.364;2023-03-01T02:12:45;6.00;70.70
4908;DHT22;64375;51.540;7.364;2023-03-01T02:15:14;5.70;72.50
4908;DHT22;64375;51.540;7.364;2023-03-01T02:17:44;5.90;74.90
4908;DHT22;64375;51.540;7.364;2023-03-01T02:20:20;5.90;73.20
4908;DHT22;64375;51.540;7.364;2023-03-01T02:22:50;5.90;74.40
4908;DHT22;64375;51.540;7.364;2023-03-01T02:25:41;6.30;79.10
4908;DHT22;64375;51.540;7.364;2023-03-01T02:28:23;7.00;87.80
4908;DHT22;64375;51.540;7.364;2023-03-01T02:30:54;7.40;86.00
4908;DHT22;64375;51.540;7.364;2023-03-01T02:33:39;7.30;76.90
4908;DHT22;64375;51.540;7.364;2023-03-01T02:36:11;6.80;71.10
4908;DHT22;64375;51.540;7.364;2023-03-01T02:38:40;7.10;80.60
4908;DHT22;64375;51.540;7.364;2023-03-01T02:41:09;7.50;84.10
4908;DHT22;64375;51.540;7.364;2023-03-01T02:43:39;7.10;73.60
4908;DHT22;64375;51.540;7.364;2023-03-01T02:46:12;6.90;72.50
4908;DHT22;64375;51.540;7.364;2023-03-01T02:48:45;6.90;76.60
4908;DHT22;64375;51.540;7.364;2023-03-01T02:51:39;7.20;81.40
4908;DHT22;64375;51.540;7.364;2023-03-01T02:54:21;7.10;74.00
4908;DHT22;64375;51.540;7.364;2023-03-01T02:56:51;6.80;70.80
4908;DHT22;64375;51.540;7.364;2023-03-01T02:59:34;6.90;74.70
4908;DHT22;64375;51.540;7.364;2023-03-01T03:02:06;7.20;79.50
4908;DHT22;64375;51.540;7.364;2023-03-01T03:04:37;6.60;71.10
4908;DHT22;64375;51.540;7.364;2023-03-01T03:07:08;6.50;71.80
4908;DHT22;64375;51.540;7.364;2023-03-01T03:09:38;6.70;76.70
4908;DHT22;64375;51.540;7.364;2023-03-01T03:12:08;7.00;80.10
4908;DHT22;64375;51.540;7.364;2023-03-01T03:14:43;7.00;74.50
4908;DHT22;64375;51.540;7.364;2023-03-01T03:17:11;6.60;71.00
4908;DHT22;64375;51.540;7.364;2023-03-01T03:19:42;6.40;71.60
4908;DHT22;64375;51.540;7.364;2023-03-01T03:22:11;6.40;73.80
4908;DHT22;64375;51.540;7.364;2023-03-01T03:24:47;6.00;70.70
4908;DHT22;64375;51.540;7.364;2023-03-01T03:27:18;5.60;70.90
4908;DHT22;64375;51.540;7.364;2023-03-01T03:29:47;5.60;74.60
4908;DHT22;64375;51.540;7.364;2023-03-01T03:32:15;5.90;76.40
4908;DHT22;64375;51.540;7.364;2023-03-01T03:34:51;5.80;72.50
4908;DHT22;64375;51.540;7.364;2023-03-01T03:37:21;5.40;71.60
4908;DHT22;64375;51.540;7.364;2023-03-01T03:40:30;5.30;73.90
4908;DHT22;64375;51.540;7.364;2023-03-01T03:43:07;5.90;81.90
4908;DHT22;64375;51.540;7.364;2023-03-01T03:45:43;6.00;75.90
4908;DHT22;64375;51.540;7.364;2023-03-01T03:48:11;5.90;72.90
4908;DHT22;64375;51.540;7.364;2023-03-01T03:50:47;5.90;76.30
4908;DHT22;64375;51.540;7.364;2023-03-01T03:53:15;6.30;80.40
4908;DHT22;64375;51.540;7.364;2023-03-01T03:55:43;6.20;74.30
4908;DHT22;64375;51.540;7.364;2023-03-01T03:58:11;6.00;72.30
4908;DHT22;64375;51.540;7.364;2023-03-01T04:00:43;6.30;77.80
4908;DHT22;64375;51.540;7.364;2023-03-01T04:03:15;6.70;83.50
4908;DHT22;64375;51.540;7.364;2023-03-01T04:05:45;6.40;72.10
4908;DHT22;64375;51.540;7.364;2023-03-01T04:08:14;5.80;72.00
4908;DHT22;64375;51.540;7.364;2023-03-01T04:10:47;6.00;79.10
4908;DHT22;64375;51.540;7.364;2023-03-01T04:13:32;6.50;84.90
4908;DHT22;64375;51.540;7.364;2023-03-01T04:16:02;6.30;74.40
4908;DHT22;64375;51.540;7.364;2023-03-01T04:18:30;5.70;71.20
4908;DHT22;64375;51.540;7.364;2023-03-01T04:20:58;5.80;78.00
4908;DHT22;64375;51.540;7.364;2023-03-01T04:23:25;6.10;79.20
4908;DHT22;64375;51.540;7.364;2023-03-01T04:25:55;6.10;74.90
4908;DHT22;64375;51.540;7.364;2023-03-01T04:28:25;6.00;72.90
4908;DHT22;64375;51.540;7.364;2023-03-01T04:31:06;6.10;76.70
4908;DHT22;64375;51.540;7.364;2023-03-01T04:33:40;6.50;79.90
4908;DHT22;64375;51.540;7.364;2023-03-01T04:36:15;6.40;74.00
4908;DHT22;64375;51.540;7.364;2023-03-01T04:38:45;6.50;76.20
4908;DHT22;64375;51.540;7.364;2023-03-01T04:41:15;6.80;80.70
4908;DHT22;64375;51.540;7.364;2023-03-01T04:43:46;7.20;85.20
4908;DHT22;64375;51.540;7.364;2023-03-01T04:46:20;7.50;84.50
4908;DHT22;64375;51.540;7.364;2023-03-01T04:48:54;7.60;81.20
4908;DHT22;64375;51.540;7.364;2023-03-01T04:51:22;7.60;82.20
4908;DHT22;64375;51.540;7.364;2023-03-01T04:53:50;7.80;83.80
4908;DHT22;64375;51.540;7.364;2023-03-01T04:56:18;7.70;79.10
4908;DHT22;64375;51.540;7.364;2023-03-01T04:58:49;7.30;72.70
4908;DHT22;64375;51.540;7.364;2023-03-01T05:01:22;7.40;79.70
4908;DHT22;64375;51.540;7.364;2023-03-01T05:03:51;7.60;83.00
4908;DHT22;64375;51.540;7.364;2023-03-01T05:06:20;7.40;74.90
4908;DHT22;64375;51.540;7.364;2023-03-01T05:08:51;7.10;72.50
4908;DHT22;64375;51.540;7.364;2023-03-01T05:11:19;7.30;79.60
4908;DHT22;64375;51.540;7.364;2023-03-01T05:13:47;7.50;81.30
4908;DHT22;64375;51.540;7.364;2023-03-01T05:16:16;7.10;73.10
4908;DHT22;64375;51.540;7.364;2023-03-01T05:18:48;7.20;78.80
4908;DHT22;64375;51.540;7.364;2023-03-01T05:21:20;7.50;82.40
4908;DHT22;64375;51.540;7.364;2023-03-01T05:24:00;7.70;84.10
4908;DHT22;64375;51.540;7.364;2023-03-01T05:26:42;7.90;84.20
4908;DHT22;64375;51.540;7.364;2023-03-01T05:29:11;8.00;84.60
4908;DHT22;64375;51.540;7.364;2023-03-01T05:31:42;8.10;83.20
4908;DHT22;64375;51.540;7.364;2023-03-01T05:34:11;8.40;85.50
4908;DHT22;64375;51.540;7.364;2023-03-01T05:36:42;8.40;82.40
4908;DHT22;64375;51.540;7.364;2023-03-01T05:39:12;7.60;71.10
4908;DHT22;64375;51.540;7.364;2023-03-01T05:41:42;7.50;75.20
4908;DHT22;64375;51.540;7.364;2023-03-01T05:44:13;7.70;80.60
4908;DHT22;64375;51.540;7.364;2023-03-01T05:46:47;7.30;72.40
4908;DHT22;64375;51.540;7.364;2023-03-01T05:49:16;7.30;79.50
4908;DHT22;64375;51.540;7.364;2023-03-01T05:51:49;7.50;80.00
4908;DHT22;64375;51.540;7.364;2023-03-01T05:54:17;6.80;69.80
4908;DHT22;64375;51.540;7.364;2023-03-01T05:56:45;6.30;69.50
4908;DHT22;64375;51.540;7.364;2023-03-01T05:59:13;6.50;78.50
4908;DHT22;64375;51.540;7.364;2023-03-01T06:01:43;6.60;76.50
4908;DHT22;64375;51.540;7.364;2023-03-01T06:04:13;6.30;70.90
4908;DHT22;64375;51.540;7.364;2023-03-01T06:06:43;6.40;83.40
4908;DHT22;64375;51.540;7.364;2023-03-01T06:09:10;6.70;81.50
4908;DHT22;64375;51.540;7.364;2023-03-01T06:11:38;7.00;80.90
4908;DHT22;64375;51.540;7.364;2023-03-01T06:14:07;6.80;73.60
4908;DHT22;64375;51.540;7.364;2023-03-01T06:16:37;7.20;82.10
4908;DHT22;64375;51.540;7.364;2023-03-01T06:19:07;6.90;72.50
4908;DHT22;64375;51.540;7.364;2023-03-01T06:21:43;6.40;69.40
4908;DHT22;64375;51.540;7.364;2023-03-01T06:24:10;4.80;70.10
4908;DHT22;64375;51.540;7.364;2023-03-01T06:26:43;3.50;73.90
4908;DHT22;64375;51.540;7.364;2023-03-01T06:29:17;2.50;76.80
4908;DHT22;64375;51.540;7.364;2023-03-01T06:31:45;2.10;81.30
4908;DHT22;64375;51.540;7.364;2023-03-01T06:34:16;2.30;81.00
4908;DHT22;64375;51.540;7.364;2023-03-01T06:36:46;2.80;83.40
4908;DHT22;64375;51.540;7.364;2023-03-01T06:39:14;3.60;88.60
4908;DHT22;64375;51.540;7.364;2023-03-01T06:41:44;4.00;82.00
4908;DHT22;64375;51.540;7.364;2023-03-01T06:44:15;4.20;78.20
4908;DHT22;64375;51.540;7.364;2023-03-01T06:46:45;4.60;82.70
4908;DHT22;64375;51.540;7.364;2023-03-01T06:49:15;5.40;90.20
4908;DHT22;64375;51.540;7.364;2023-03-01T06:51:45;4.80;77.50
4908;DHT22;64375;51.540;7.364;2023-03-01T06:54:16;4.80;77.50
4908;DHT22;64375;51.540;7.364;2023-03-01T06:56:54;4.50;75.60
4908;DHT22;64375;51.540;7.364;2023-03-01T06:59:21;4.40;76.00
4908;DHT22;64375;51.540;7.364;2023-03-01T07:01:59;4.80;79.90
4908;DHT22;64375;51.540;7.364;2023-03-01T07:04:33;4.80;76.00
4908;DHT22;64375;51.540;7.364;2023-03-01T07:07:03;4.40;74.70
4908;DHT22;64375;51.540;7.364;2023-03-01T07:09:31;3.90;75.50
4908;DHT22;64375;51.540;7.364;2023-03-01T07:12:06;3.50;77.50
4908;DHT22;64375;51.540;7.364;2023-03-01T07:14:37;3.60;78.70
4908;DHT22;64375;51.540;7.364;2023-03-01T07:17:13;3.60;77.50
4908;DHT22;64375;51.540;7.364;2023-03-01T07:19:44;3.30;77.80
4908;DHT22;64375;51.540;7.364;2023-03-01T07:22:16;3.40;81.60
4908;DHT22;64375;51.540;7.364;2023-03-01T07:24:47;3.30;81.80
4908;DHT22;64375;51.540;7.364;2023-03-01T07:27:15;3.40;80.60
4908;DHT22;64375;51.540;7.364;2023-03-01T07:29:51;2.60;79.90
4908;DHT22;64375;51.540;7.364;2023-03-01T07:32:19;2.70;84.00
4908;DHT22;64375;51.540;7.364;2023-03-01T07:34:47;2.40;82.20
4908;DHT22;64375;51.540;7.364;2023-03-01T07:37:17;2.50;82.40
4908;DHT22;64375;51.540;7.364;2023-03-01T07:39:45;2.40;83.20
4908;DHT22;64375;51.540;7.364;2023-03-01T07:42:18;2.50;83.30
4908;DHT22;64375;51.540;7.364;2023-03-01T07:44:46;2.30;83.00
4908;DHT22;64375;51.540;7.364;2023-03-01T07:47:14;2.30;83.80
4908;DHT22;64375;51.540;7.364;2023-03-01T07:49:42;2.50;84.50
4908;DHT22;64375;51.540;7.364;2023-03-01T07:52:17;2.50;84.30
4908;DHT22;64375;51.540;7.364;2023-03-01T07:54:45;2.60;84.80
4908;DHT22;64375;51.540;7.364;2023-03-01T07:57:16;2.60;83.40
4908;DHT22;64375;51.540;7.364;2023-03-01T07:59:44;2.70;84.20
4908;DHT22;64375;51.540;7.364;2023-03-01T08:02:12;2.70;83.00
4908;DHT22;64375;51.540;7.364;2023-03-01T08:04:48;2.80;84.00
4908;DHT22;64375;51.540;7.364;2023-03-01T08:07:21;2.90;84.10
4908;DHT22;64375;51.540;7.364;2023-03-01T08:09:49;2.80;84.30
4908;DHT22;64375;51.540;7.364;2023-03-01T08:12:19;3.20;86.00
4908;DHT22;64375;51.540;7.364;2023-03-01T08:14:50;3.10;83.40
4908;DHT22;64375;51.540;7.364;2023-03-01T08:17:18;2.80;83.60
4908;DHT22;64375;51.540;7.364;2023-03-01T08:19:48;2.80;85.80
4908;DHT22;64375;51.540;7.364;2023-03-01T08:22:16;3.00;86.40
4908;DHT22;64375;51.540;7.364;2023-03-01T08:24:48;3.10;85.50
4908;DHT22;64375;51.540;7.364;2023-03-01T08:27:17;2.90;83.20
4908;DHT22;64375;51.540;7.364;2023-03-01T08:29:51;2.60;84.30
4908;DHT22;64375;51.540;7.364;2023-03-01T08:32:18;2.20;85.40
4908;DHT22;64375;51.540;7.364;2023-03-01T08:34:46;2.00;86.50
4908;DHT22;64375;51.540;7.364;2023-03-01T08:37:25;2.20;87.20
4908;DHT22;64375;51.540;7.364;2023-03-01T08:39:57;2.20;86.30
4908;DHT22;64375;51.540;7.364;2023-03-01T08:42:25;2.00;86.90
4908;DHT22;64375;51.540;7.364;2023-03-01T08:44:56;2.20;86.60
4908;DHT22;64375;51.540;7.364;2023-03-01T08:47:23;2.10;86.50
4908;DHT22;64375;51.540;7.364;2023-03-01T08:49:52;2.50;90.20
4908;DHT22;64375;51.540;7.364;2023-03-01T08:52:20;2.50;86.80
4908;DHT22;64375;51.540;7.364;2023-03-01T08:54:48;2.40;86.50
4908;DHT22;64375;51.540;7.364;2023-03-01T08:57:18;2.50;85.80
4908;DHT22;64375;51.540;7.364;2023-03-01T08:59:49;2.60;85.70
4908;DHT22;64375;51.540;7.364;2023-03-01T09:02:20;2.40;85.30
4908;DHT22;64375;51.540;7.364;2023-03-01T09:04:50;2.50;86.30
4908;DHT22;64375;51.540;7.364;2023-03-01T09:07:20;2.60;85.40
4908;DHT22;64375;51.540;7.364;2023-03-01T09:09:48;2.60;84.60
4908;DHT22;64375;51.540;7.364;2023-03-01T09:12:22;2.70;84.40
4908;DHT22;64375;51.540;7.364;2023-03-01T09:14:57;2.70;84.20
4908;DHT22;64375;51.540;7.364;2023-03-01T09:17:25;2.80;84.20
4908;DHT22;64375;51.540;7.364;2023-03-01T09:19:58;2.80;84.90
4908;DHT22;64375;51.540;7.364;2023-03-01T09:22:26;2.80;85.30
4908;DHT22;64375;51.540;7.364;2023-03-01T09:25:00;2.90;85.40
4908;DHT22;64375;51.540;7.364;2023-03-01T09:27:32;3.00;84.70
4908;DHT22;64375;51.540;7.364;2023-03-01T09:30:04;3.10;85.00
4908;DHT22;64375;51.540;7.364;2023-03-01T09:32:36;3.10;84.40
4908;DHT22;64375;51.540;7.364;2023-03-01T09:35:22;3.10;84.80
4908;DHT22;64375;51.540;7.364;2023-03-01T09:37:53;3.30;86.10
4908;DHT22;64375;51.540;7.364;2023-03-01T09:40:24;3.40;84.00
4908;DHT22;64375;51.540;7.364;2023-03-01T09:43:00;3.50;83.50
4908;DHT22;64375;51.540;7.364;2023-03-01T09:45:33;3.30;83.80
4908;DHT22;64375;51.540;7.364;2023-03-01T09:48:15;3.10;84.00
4908;DHT22;64375;51.540;7.364;2023-03-01T09:50:44;3.10;83.60
4908;DHT22;64375;51.540;7.364;2023-03-01T09:53:26;3.20;83.20
4908;DHT22;64375;51.540;7.364;2023-03-01T09:56:00;3.20;83.40
4908;DHT22;64375;51.540;7.364;2023-03-01T09:58:37;3.30;83.80
4908;DHT22;64375;51.540;7.364;2023-03-01T10:01:30;3.40;84.20
4908;DHT22;64375;51.540;7.364;2023-03-01T10:04:33;3.40;82.30
4908;DHT22;64375;51.540;7.364;2023-03-01T10:07:17;3.20;83.10
4908;DHT22;64375;51.540;7.364;2023-03-01T10:09:59;3.30;82.80
4908;DHT22;64375;51.540;7.364;2023-03-01T10:12:35;3.30;83.30
4908;DHT22;64375;51.540;7.364;2023-03-01T10:15:12;3.30;82.90
4908;DHT22;64375;51.540;7.364;2023-03-01T10:17:46;3.20;81.80
4908;DHT22;64375;51.540;7.364;2023-03-01T10:20:19;3.20;81.20
4908;DHT22;64375;51.540;7.364;2023-03-01T10:22:47;3.40;81.90
4908;DHT22;64375;51.540;7.364;2023-03-01T10:25:29;3.40;80.40
4908;DHT22;64375;51.540;7.364;2023-03-01T10:28:10;3.50;80.10
4908;DHT22;64375;51.540;7.364;2023-03-01T10:30:48;3.60;81.50
4908;DHT22;64375;51.540;7.364;2023-03-01T10:33:18;3.70;80.40
4908;DHT22;64375;51.540;7.364;2023-03-01T10:35:46;3.70;80.60
4908;DHT22;64375;51.540;7.364;2023-03-01T10:38:16;3.80;80.10
4908;DHT22;64375;51.540;7.364;2023-03-01T10:40:53;3.80;79.40
4908;DHT22;64375;51.540;7.364;2023-03-01T10:43:21;3.90;80.40
4908;DHT22;64375;51.540;7.364;2023-03-01T10:46:22;3.90;79.20
4908;DHT22;64375;51.540;7.364;2023-03-01T10:49:14;3.90;79.10
4908;DHT22;64375;51.540;7.364;2023-03-01T10:51:44;3.90;78.60
4908;DHT22;64375;51.540;7.364;2023-03-01T10:54:18;4.00;78.90
4908;DHT22;64375;51.540;7.364;2023-03-01T10:56:49;4.10;77.90
4908;DHT22;64375;51.540;7.364;2023-03-01T10:59:26;4.00;76.80
4908;DHT22;64375;51.540;7.364;2023-03-01T11:02:11;4.00;79.20
4908;DHT22;64375;51.540;7.364;2023-03-01T11:04:59;4.10;77.50
4908;DHT22;64375;51.540;7.364;2023-03-01T11:07:28;4.30;78.10
4908;DHT22;64375;51.540;7.364;2023-03-01T11:09:56;4.40;79.20
4908;DHT22;64375;51.540;7.364;2023-03-01T11:12:24;4.40;77.30
4908;DHT22;64375;51.540;7.364;2023-03-01T11:15:02;4.50;77.00
4908;DHT22;64375;51.540;7.364;2023-03-01T11:17:37;4.60;76.60
4908;DHT22;64375;51.540;7.364;2023-03-01T11:20:29;4.60;76.90
4908;DHT22;64375;51.540;7.364;2023-03-01T11:23:03;4.40;76.60
4908;DHT22;64375;51.540;7.364;2023-03-01T11:25:36;4.50;77.80
4908;DHT22;64375;51.540;7.364;2023-03-01T11:28:06;4.70;78.30
4908;DHT22;64375;51.540;7.364;2023-03-01T11:30:40;4.70;75.70
4908;DHT22;64375;51.540;7.364;2023-03-01T11:33:17;4.80;76.10
4908;DHT22;64375;51.540;7.364;2023-03-01T11:35:49;4.80;75.80
4908;DHT22;64375;51.540;7.364;2023-03-01T11:38:23;4.80;78.80
4908;DHT22;64375;51.540;7.364;2023-03-01T11:40:55;4.70;77.20
4908;DHT22;64375;51.540;7.364;2023-03-01T11:43:33;4.80;76.80
4908;DHT22;64375;51.540;7.364;2023-03-01T11:46:50;4.90;76.60
4908;DHT22;64375;51.540;7.364;2023-03-01T11:49:36;5.00;75.80
4908;DHT22;64375;51.540;7.364;2023-03-01T11:52:11;5.00;76.60
4908;DHT22;64375;51.540;7.364;2023-03-01T11:54:54;5.10;76.50
4908;DHT22;64375;51.540;7.364;2023-03-01T11:57:55;5.40;77.70
4908;DHT22;64375;51.540;7.364;2023-03-01T12:00:44;5.40;76.20
4908;DHT22;64375;51.540;7.364;2023-03-01T12:03:39;5.30;76.10
4908;DHT22;64375;51.540;7.364;2023-03-01T12:06:46;5.30;75.60
4908;DHT22;64375;51.540;7.364;2023-03-01T12:09:50;5.30;75.60
4908;DHT22;64375;51.540;7.364;2023-03-01T12:12:33;5.60;76.10
4908;DHT22;64375;51.540;7.364;2023-03-01T12:18:35;5.50;75.50
4908;DHT22;64375;51.540;7.364;2023-03-01T12:21:19;5.60;76.10
4908;DHT22;64375;51.540;7.364;2023-03-01T12:24:31;5.70;76.50
4908;DHT22;64375;51.540;7.364;2023-03-01T12:27:15;5.70;76.30
4908;DHT22;64375;51.540;7.364;2023-03-01T12:30:15;5.70;74.70
4908;DHT22;64375;51.540;7.364;2023-03-01T12:32:52;5.70;74.70
4908;DHT22;64375;51.540;7.364;2023-03-01T12:35:47;5.60;75.00
4908;DHT22;64375;51.540;7.364;2023-03-01T12:38:32;5.70;76.20
4908;DHT22;64375;51.540;7.364;2023-03-01T12:41:19;5.60;74.40
4908;DHT22;64375;51.540;7.364;2023-03-01T12:44:12;5.70;74.60
4908;DHT22;64375;51.540;7.364;2023-03-01T12:47:00;5.80;74.30
4908;DHT22;64375;51.540;7.364;2023-03-01T12:49:35;6.00;73.90
4908;DHT22;64375;51.540;7.364;2023-03-01T12:52:11;6.00;73.80
4908;DHT22;64375;51.540;7.364;2023-03-01T12:54:41;6.00;73.50
4908;DHT22;64375;51.540;7.364;2023-03-01T12:57:15;6.00;73.90
4908;DHT22;64375;51.540;7.364;2023-03-01T13:00:02;6.00;73.60
4908;DHT22;64375;51.540;7.364;2023-03-01T13:02:40;6.00;72.00
4908;DHT22;64375;51.540;7.364;2023-03-01T13:05:33;5.90;72.90
4908;DHT22;64375;51.540;7.364;2023-03-01T13:08:12;6.10;73.40
4908;DHT22;64375;51.540;7.364;2023-03-01T13:10:48;6.20;72.40
4908;DHT22;64375;51.540;7.364;2023-03-01T13:13:22;6.30;72.30
4908;DHT22;64375;51.540;7.364;2023-03-01T13:15:53;6.40;72.20
4908;DHT22;64375;51.540;7.364;2023-03-01T13:18:32;6.40;71.10
4908;DHT22;64375;51.540;7.364;2023-03-01T13:21:06;6.30;70.80
4908;DHT22;64375;51.540;7.364;2023-03-01T13:23:41;6.20;70.80
4908;DHT22;64375;51.540;7.364;2023-03-01T13:26:24;6.20;71.60
4908;DHT22;64375;51.540;7.364;2023-03-01T13:28:54;6.30;71.70
4908;DHT22;64375;51.540;7.364;2023-03-01T13:31:57;6.30;70.90
4908;DHT22;64375;51.540;7.364;2023-03-01T13:34:42;6.30;70.80
4908;DHT22;64375;51.540;7.364;2023-03-01T13:37:24;6.30;70.90
4908;DHT22;64375;51.540;7.364;2023-03-01T13:40:00;6.40;72.00
4908;DHT22;64375;51.540;7.364;2023-03-01T13:42:37;6.50;72.60
4908;DHT22;64375;51.540;7.364;2023-03-01T13:45:17;6.60;70.70
4908;DHT22;64375;51.540;7.364;2023-03-01T13:47:46;6.60;70.60
4908;DHT22;64375;51.540;7.364;2023-03-01T13:50:19;6.60;70.30
4908;DHT22;64375;51.540;7.364;2023-03-01T13:52:53;6.60;69.60
4908;DHT22;64375;51.540;7.364;2023-03-01T13:55:37;6.60;70.20
4908;DHT22;64375;51.540;7.364;2023-03-01T13:58:16;6.60;70.00
4908;DHT22;64375;51.540;7.364;2023-03-01T14:00:47;6.70;70.90
4908;DHT22;64375;51.540;7.364;2023-03-01T14:03:22;6.80;70.20
4908;DHT22;64375;51.540;7.364;2023-03-01T14:06:03;6.80;70.30
4908;DHT22;64375;51.540;7.364;2023-03-01T14:08:46;6.80;71.50
4908;DHT22;64375;51.540;7.364;2023-03-01T14:11:29;6.90;70.20
4908;DHT22;64375;51.540;7.364;2023-03-01T14:16:59;6.90;71.70
4908;DHT22;64375;51.540;7.364;2023-03-01T14:19:32;7.20;73.80
4908;DHT22;64375;51.540;7.364;2023-03-01T14:22:10;7.10;69.30
4908;DHT22;64375;51.540;7.364;2023-03-01T14:24:46;7.00;69.60
4908;DHT22;64375;51.540;7.364;2023-03-01T14:27:16;7.00;70.00
4908;DHT22;64375;51.540;7.364;2023-03-01T14:29:54;6.90;69.80
4908;DHT22;64375;51.540;7.364;2023-03-01T14:32:25;6.80;70.50
4908;DHT22;64375;51.540;7.364;2023-03-01T14:34:56;7.00;71.50
4908;DHT22;64375;51.540;7.364;2023-03-01T14:37:26;7.10;71.40
4908;DHT22;64375;51.540;7.364;2023-03-01T14:39:56;7.30;70.50
4908;DHT22;64375;51.540;7.364;2023-03-01T14:42:28;7.30;70.70
4908;DHT22;64375;51.540;7.364;2023-03-01T14:44:58;7.10;69.70
4908;DHT22;64375;51.540;7.364;2023-03-01T14:47:32;7.10;70.90
4908;DHT22;64375;51.540;7.364;2023-03-01T14:50:03;7.20;70.10
4908;DHT22;64375;51.540;7.364;2023-03-01T14:52:37;7.10;69.60
4908;DHT22;64375;51.540;7.364;2023-03-01T14:55:14;7.10;69.60
4908;DHT22;64375;51.540;7.364;2023-03-01T14:57:43;7.10;69.90
4908;DHT22;64375;51.540;7.364;2023-03-01T15:00:20;7.20;69.70
4908;DHT22;64375;51.540;7.364;2023-03-01T15:02:51;7.30;73.10
4908;DHT22;64375;51.540;7.364;2023-03-01T15:05:25;7.30;68.20
4908;DHT22;64375;51.540;7.364;2023-03-01T15:07:54;7.20;66.60
4908;DHT22;64375;51.540;7.364;2023-03-01T15:10:26;7.10;66.70
4908;DHT22;64375;51.540;7.364;2023-03-01T15:13:09;7.00;67.10
4908;DHT22;64375;51.540;7.364;2023-03-01T15:15:40;6.90;67.40
4908;DHT22;64375;51.540;7.364;2023-03-01T15:18:17;6.80;68.00
4908;DHT22;64375;51.540;7.364;2023-03-01T15:20:46;7.00;68.60
4908;DHT22;64375;51.540;7.364;2023-03-01T15:23:27;6.90;67.70
4908;DHT22;64375;51.540;7.364;2023-03-01T15:25:56;7.00;68.00
4908;DHT22;64375;51.540;7.364;2023-03-01T15:28:27;7.00;67.50
4908;DHT22;64375;51.540;7.364;2023-03-01T15:31:00;7.10;67.50
4908;DHT22;64375;51.540;7.364;2023-03-01T15:33:33;7.20;68.10
4908;DHT22;64375;51.540;7.364;2023-03-01T15:36:04;7.20;67.60
4908;DHT22;64375;51.540;7.364;2023-03-01T15:38:56;7.20;66.30
4908;DHT22;64375;51.540;7.364;2023-03-01T15:41:26;7.10;65.90
4908;DHT22;64375;51.540;7.364;2023-03-01T15:43:54;6.90;66.00
4908;DHT22;64375;51.540;7.364;2023-03-01T15:46:32;7.00;66.90
4908;DHT22;64375;51.540;7.364;2023-03-01T15:49:05;7.00;66.50
4908;DHT22;64375;51.540;7.364;2023-03-01T15:51:49;7.10;66.40
4908;DHT22;64375;51.540;7.364;2023-03-01T15:54:18;7.20;65.70
4908;DHT22;64375;51.540;7.364;2023-03-01T15:56:48;7.10;65.60
4908;DHT22;64375;51.540;7.364;2023-03-01T15:59:19;6.80;66.50
4908;DHT22;64375;51.540;7.364;2023-03-01T16:01:49;6.90;65.30
4908;DHT22;64375;51.540;7.364;2023-03-01T16:04:19;6.90;64.30
4908;DHT22;64375;51.540;7.364;2023-03-01T16:06:53;6.90;64.80
4908;DHT22;64375;51.540;7.364;2023-03-01T16:09:25;6.80;63.40
4908;DHT22;64375;51.540;7.364;2023-03-01T16:12:13;6.80;63.30
4908;DHT22;64375;51.540;7.364;2023-03-01T16:14:42;6.90;63.00
4908;DHT22;64375;51.540;7.364;2023-03-01T16:17:10;6.80;63.30
4908;DHT22;64375;51.540;7.364;2023-03-01T16:19:39;6.80;63.10
4908;DHT22;64375;51.540;7.364;2023-03-01T16:22:09;6.80;63.20
4908;DHT22;64375;51.540;7.364;2023-03-01T16:24:37;7.10;72.30
4908;DHT22;64375;51.540;7.364;2023-03-01T16:27:09;7.50;75.70
4908;DHT22;64375;51.540;7.364;2023-03-01T16:29:37;7.70;64.40
4908;DHT22;64375;51.540;7.364;2023-03-01T16:32:32;7.40;61.80
4908;DHT22;64375;51.540;7.364;2023-03-01T16:35:01;7.30;66.90
4908;DHT22;64375;51.540;7.364;2023-03-01T16:37:34;7.20;62.40
4908;DHT22;64375;51.540;7.364;2023-03-01T16:40:04;7.40;80.70
4908;DHT22;64375;51.540;7.364;2023-03-01T16:42:34;7.70;66.20
4908;DHT22;64375;51.540;7.364;2023-03-01T16:45:03;7.60;64.30
4908;DHT22;64375;51.540;7.364;2023-03-01T16:47:49;7.50;62.80
4908;DHT22;64375;51.540;7.364;2023-03-01T16:50:22;7.20;62.30
4908;DHT22;64375;51.540;7.364;2023-03-01T16:52:53;7.00;63.20